createdAt,value
2019-02-21T00:02:11.781Z,7.83
2019-02-21T00:04:40.240Z,7.84
2019-02-21T00:07:08.725Z,7.76
2019-02-21T00:09:37.205Z,7.81
2019-02-21T00:12:05.692Z,7.80
2019-02-21T00:14:34.153Z,7.72
2019-02-21T00:17:02.629Z,7.70
2019-02-21T00:19:31.083Z,7.76
2019-02-21T00:21:59.563Z,7.70
2019-02-21T00:24:28.027Z,7.74
2019-02-21T00:26:56.512Z,7.72
2019-02-21T00:29:24.986Z,7.66
2019-02-21T00:31:53.452Z,7.60
2019-02-21T00:34:21.922Z,7.59
2019-02-21T00:36:50.406Z,7.57
2019-02-21T00:39:18.929Z,7.63
2019-02-21T00:41:47.417Z,7.65
2019-02-21T00:44:15.878Z,7.63
2019-02-21T00:46:44.368Z,7.64
2019-02-21T00:49:12.827Z,7.63
2019-02-21T00:51:41.321Z,7.64
2019-02-21T00:54:09.805Z,7.66
2019-02-21T00:56:38.273Z,7.66
2019-02-21T00:59:06.735Z,7.62
2019-02-21T01:01:35.241Z,7.64
2019-02-21T01:04:03.699Z,7.67
2019-02-21T01:06:32.207Z,7.67
2019-02-21T01:09:00.667Z,7.70
2019-02-21T01:11:29.125Z,7.71
2019-02-21T01:13:57.602Z,7.70
2019-02-21T01:16:26.060Z,7.67
2019-02-21T01:18:54.542Z,7.60
2019-02-21T01:21:23.007Z,7.64
2019-02-21T01:23:51.502Z,7.64
2019-02-21T01:26:19.971Z,7.56
2019-02-21T01:28:48.467Z,7.66
2019-02-21T01:31:16.942Z,7.66
2019-02-21T01:33:45.417Z,7.70
2019-02-21T01:36:13.884Z,7.65
2019-02-21T01:38:42.458Z,7.63
2019-02-21T01:41:10.922Z,7.59
2019-02-21T01:43:39.425Z,7.60
2019-02-21T01:46:07.887Z,7.63
2019-02-21T01:48:36.375Z,7.64
2019-02-21T01:51:04.826Z,7.70
2019-02-21T01:53:33.311Z,7.72
2019-02-21T01:56:01.759Z,7.71
2019-02-21T01:58:30.244Z,7.71
2019-02-21T02:01:07.970Z,7.71
2019-02-21T02:03:28.999Z,7.73
2019-02-21T02:05:57.456Z,7.66
2019-02-21T02:08:25.938Z,7.66
2019-02-21T02:10:54.389Z,7.66
2019-02-21T02:13:24.925Z,7.67
2019-02-21T02:15:53.061Z,7.61
2019-02-21T02:18:21.545Z,7.68
2019-02-21T02:20:50.007Z,7.65
2019-02-21T02:23:18.508Z,7.71
2019-02-21T02:25:46.963Z,7.65
2019-02-21T02:28:15.414Z,7.75
2019-02-21T02:30:43.978Z,7.69
2019-02-21T02:33:12.451Z,7.70
2019-02-21T02:35:40.937Z,7.66
2019-02-21T02:38:09.394Z,7.65
2019-02-21T02:40:37.970Z,7.64
2019-02-21T02:43:06.477Z,7.62
2019-02-21T02:45:34.966Z,7.65
2019-02-21T02:48:03.455Z,7.69
2019-02-21T02:50:33.087Z,7.64
2019-02-21T02:53:01.563Z,7.71
2019-02-21T02:55:30.068Z,7.75
2019-02-21T02:57:58.539Z,7.72
2019-02-21T03:00:27.053Z,7.73
2019-02-21T03:02:55.571Z,7.72
2019-02-21T03:05:24.062Z,7.73
2019-02-21T03:07:52.556Z,7.75
2019-02-21T03:10:21.092Z,7.69
2019-02-21T03:12:49.573Z,7.71
2019-02-21T03:15:18.084Z,7.75
2019-02-21T03:17:46.568Z,7.73
2019-02-21T03:20:15.094Z,7.74
2019-02-21T03:22:43.565Z,7.72
2019-02-21T03:25:12.117Z,7.71
2019-02-21T03:27:40.592Z,7.76
2019-02-21T03:30:12.360Z,7.75
2019-02-21T03:32:41.166Z,7.72
2019-02-21T03:35:09.701Z,7.79
2019-02-21T03:37:38.191Z,7.75
2019-02-21T03:40:09.112Z,7.76
2019-02-21T03:42:37.587Z,7.78
2019-02-21T03:45:09.496Z,7.78
2019-02-21T03:47:37.982Z,7.81
2019-02-21T03:50:11.057Z,7.74
2019-02-21T03:52:39.528Z,7.80
2019-02-21T03:55:08.862Z,7.76
2019-02-21T03:57:37.469Z,7.76
2019-02-21T04:00:11.477Z,7.85
2019-02-21T04:02:40.023Z,7.83
2019-02-21T04:05:08.950Z,7.86
2019-02-21T04:07:37.429Z,7.86
2019-02-21T04:10:07.962Z,7.87
2019-02-21T04:12:36.412Z,7.87
2019-02-21T04:15:06.934Z,7.89
2019-02-21T04:17:35.483Z,7.90
2019-02-21T04:20:05.683Z,7.91
2019-02-21T04:22:34.173Z,7.89
2019-02-21T04:25:02.649Z,7.90
2019-02-21T04:27:31.121Z,7.91
2019-02-21T04:29:59.605Z,7.95
2019-02-21T04:32:28.089Z,7.96
2019-02-21T04:34:56.598Z,7.96
2019-02-21T04:37:25.056Z,7.89
2019-02-21T04:39:53.529Z,7.91
2019-02-21T04:42:22.010Z,7.95
2019-02-21T04:44:50.475Z,7.91
2019-02-21T04:47:18.984Z,7.85
2019-02-21T04:49:47.488Z,7.95
2019-02-21T04:52:15.975Z,7.86
2019-02-21T04:54:44.449Z,7.87
2019-02-21T04:57:12.930Z,7.84
2019-02-21T04:59:41.417Z,7.85
2019-02-21T05:02:09.896Z,7.82
2019-02-21T05:04:38.377Z,7.86
2019-02-21T05:07:06.869Z,7.84
2019-02-21T05:09:35.316Z,7.87
2019-02-21T05:12:03.820Z,7.89
2019-02-21T05:14:32.277Z,7.81
2019-02-21T05:17:00.829Z,7.83
2019-02-21T05:19:29.268Z,7.82
2019-02-21T05:21:57.755Z,7.84
2019-02-21T05:24:26.235Z,7.83
2019-02-21T05:26:56.353Z,7.84
2019-02-21T05:29:24.837Z,7.90
2019-02-21T05:32:00.962Z,7.89
2019-02-21T05:34:36.845Z,7.80
2019-02-21T05:37:16.114Z,7.80
2019-02-21T05:39:52.140Z,7.79
2019-02-21T05:42:22.284Z,7.80
2019-02-21T05:45:10.911Z,7.79
2019-02-21T05:47:43.262Z,7.86
2019-02-21T05:50:19.193Z,7.83
2019-02-21T05:53:01.623Z,7.78
2019-02-21T05:55:31.751Z,7.75
2019-02-21T05:58:01.902Z,7.64
2019-02-21T06:00:37.796Z,7.69
2019-02-21T06:03:07.943Z,7.78
2019-02-21T06:05:54.037Z,7.77
2019-02-21T06:08:40.294Z,7.78
2019-02-21T06:11:10.689Z,7.72
2019-02-21T06:13:46.443Z,7.82
2019-02-21T06:16:34.831Z,7.83
2019-02-21T06:19:07.505Z,7.77
2019-02-21T06:21:37.619Z,7.84
2019-02-21T06:24:19.798Z,7.81
2019-02-21T06:26:52.371Z,7.78
2019-02-21T06:29:22.791Z,7.76
2019-02-21T06:31:51.378Z,7.75
2019-02-21T06:34:19.885Z,7.80
2019-02-21T06:36:48.410Z,7.74
2019-02-21T06:39:16.861Z,7.76
2019-02-21T06:41:45.333Z,7.80
2019-02-21T06:44:13.830Z,7.80
2019-02-21T06:46:42.296Z,7.79
2019-02-21T06:49:10.795Z,7.82
2019-02-21T06:51:39.274Z,7.86
2019-02-21T06:54:07.757Z,7.86
2019-02-21T06:56:36.234Z,7.91
2019-02-21T06:59:04.728Z,7.90
2019-02-21T07:01:33.197Z,7.97
2019-02-21T07:04:02.015Z,7.98
2019-02-21T07:06:32.177Z,8.04
2019-02-21T07:09:00.944Z,8.04
2019-02-21T07:11:29.450Z,8.10
2019-02-21T07:13:57.924Z,8.11
2019-02-21T07:16:26.436Z,8.10
2019-02-21T07:18:54.867Z,8.19
2019-02-21T07:21:23.340Z,8.20
2019-02-21T07:23:51.858Z,8.28
2019-02-21T07:26:20.338Z,8.31
2019-02-21T07:28:48.818Z,8.32
2019-02-21T07:31:28.166Z,8.35
2019-02-21T07:33:48.392Z,8.39
2019-02-21T07:36:17.001Z,8.43
2019-02-21T07:38:45.454Z,8.40
2019-02-21T07:41:14.109Z,8.34
2019-02-21T07:43:42.606Z,8.42
2019-02-21T07:46:11.094Z,8.40
2019-02-21T07:48:39.645Z,8.45
2019-02-21T07:51:08.166Z,8.50
2019-02-21T07:53:36.654Z,8.46
2019-02-21T07:56:05.241Z,8.51
2019-02-21T07:58:33.708Z,8.54
2019-02-21T08:01:02.221Z,8.58
2019-02-21T08:03:43.446Z,8.62
2019-02-21T08:06:00.896Z,8.59
2019-02-21T08:08:32.256Z,8.58
2019-02-21T08:10:59.653Z,8.59
2019-02-21T08:13:28.116Z,8.56
2019-02-21T08:15:56.596Z,8.53
2019-02-21T08:18:25.081Z,8.58
2019-02-21T08:20:53.586Z,8.57
2019-02-21T08:23:22.040Z,8.61
2019-02-21T08:25:50.527Z,8.59
2019-02-21T08:28:19.006Z,8.51
2019-02-21T08:30:47.506Z,8.46
2019-02-21T08:33:17.626Z,8.40
2019-02-21T08:35:46.113Z,8.45
2019-02-21T08:38:14.613Z,8.40
2019-02-21T08:40:43.057Z,8.47
2019-02-21T08:43:11.581Z,8.38
2019-02-21T08:45:40.041Z,8.38
2019-02-21T08:48:08.527Z,8.37
2019-02-21T08:50:37.075Z,8.32
2019-02-21T08:53:05.586Z,8.36
2019-02-21T08:55:34.042Z,8.43
2019-02-21T08:58:02.523Z,8.48
2019-02-21T09:00:31.687Z,8.46
2019-02-21T09:03:00.543Z,8.57
2019-02-21T09:05:29.016Z,8.63
2019-02-21T09:07:57.647Z,8.61
2019-02-21T09:10:27.703Z,8.57
2019-02-21T09:12:56.440Z,8.64
2019-02-21T09:15:24.922Z,8.68
2019-02-21T09:17:54.335Z,8.62
2019-02-21T09:20:23.077Z,8.76
2019-02-21T09:22:51.591Z,8.68
2019-02-21T09:25:20.054Z,8.55
2019-02-21T09:27:48.558Z,8.63
2019-02-21T09:30:18.694Z,8.67
2019-02-21T09:32:47.232Z,8.67
2019-02-21T09:35:15.711Z,8.58
2019-02-21T09:37:44.208Z,8.65
2019-02-21T09:40:14.460Z,8.65
2019-02-21T09:42:42.911Z,8.73
2019-02-21T09:45:17.115Z,8.79
2019-02-21T09:47:45.615Z,8.73
2019-02-21T09:50:14.461Z,9.17
2019-02-21T09:52:43.014Z,8.98
2019-02-21T09:55:14.115Z,9.12
2019-02-21T09:57:42.617Z,9.27
2019-02-21T10:00:13.918Z,9.36
2019-02-21T10:02:42.419Z,9.14
2019-02-21T10:05:10.906Z,9.43
2019-02-21T10:07:39.397Z,9.53
2019-02-21T10:10:13.341Z,9.57
2019-02-21T10:12:41.829Z,9.62
2019-02-21T10:15:12.745Z,9.67
2019-02-21T10:17:41.329Z,9.87
2019-02-21T10:20:17.664Z,10.05
2019-02-21T10:22:46.168Z,10.29
2019-02-21T10:25:17.236Z,10.58
2019-02-21T10:27:45.786Z,10.82
2019-02-21T10:30:16.894Z,11.11
2019-02-21T10:32:45.386Z,11.51
2019-02-21T10:35:13.927Z,11.50
2019-02-21T10:37:42.426Z,11.57
2019-02-21T10:40:13.036Z,11.42
2019-02-21T10:42:41.619Z,11.58
2019-02-21T10:45:12.730Z,11.52
2019-02-21T10:47:41.254Z,11.56
2019-02-21T10:50:15.638Z,11.52
2019-02-21T10:52:44.148Z,12.00
2019-02-21T10:55:12.698Z,11.57
2019-02-21T10:57:41.335Z,11.63
2019-02-21T11:00:27.478Z,11.71
2019-02-21T11:02:56.067Z,11.84
2019-02-21T11:05:24.548Z,11.97
2019-02-21T11:07:53.124Z,12.50
2019-02-21T11:10:24.009Z,12.15
2019-02-21T11:12:52.524Z,12.30
2019-02-21T11:15:25.511Z,12.20
2019-02-21T11:17:54.353Z,12.68
2019-02-21T11:20:23.085Z,12.82
2019-02-21T11:22:51.589Z,12.32
2019-02-21T11:25:20.069Z,12.39
2019-02-21T11:27:48.638Z,12.34
2019-02-21T11:30:19.331Z,12.33
2019-02-21T11:32:47.823Z,12.41
2019-02-21T11:35:16.394Z,12.58
2019-02-21T11:37:47.078Z,13.14
2019-02-21T11:40:18.745Z,12.50
2019-02-21T11:42:47.226Z,12.93
2019-02-21T11:45:18.149Z,12.47
2019-02-21T11:47:46.752Z,12.94
2019-02-21T11:50:19.016Z,12.68
2019-02-21T11:52:47.486Z,13.20
2019-02-21T11:55:18.579Z,12.52
2019-02-21T11:57:47.226Z,13.14
2019-02-21T12:00:21.150Z,12.73
2019-02-21T12:02:49.769Z,13.08
2019-02-21T12:05:30.241Z,13.05
2019-02-21T12:07:48.470Z,12.42
2019-02-21T12:10:17.041Z,12.35
2019-02-21T12:12:45.522Z,12.28
2019-02-21T12:15:15.451Z,12.12
2019-02-21T12:17:44.001Z,12.22
2019-02-21T12:20:14.959Z,12.30
2019-02-21T12:22:43.443Z,12.31
2019-02-21T12:25:14.488Z,12.34
2019-02-21T12:27:42.967Z,12.37
2019-02-21T12:30:14.022Z,12.21
2019-02-21T12:32:42.570Z,12.29
2019-02-21T12:35:11.297Z,12.10
2019-02-21T12:37:39.770Z,12.13
2019-02-21T12:40:19.184Z,12.40
2019-02-21T12:42:47.682Z,12.50
2019-02-21T12:45:18.211Z,12.12
2019-02-21T12:47:52.960Z,12.12
2019-02-21T12:50:16.932Z,12.16
2019-02-21T12:52:45.407Z,12.08
2019-02-21T12:55:26.568Z,11.98
2019-02-21T12:57:44.873Z,11.96
2019-02-21T13:00:15.709Z,11.95
2019-02-21T13:02:44.183Z,11.89
2019-02-21T13:05:12.671Z,11.82
2019-02-21T13:07:41.130Z,11.84
2019-02-21T13:10:21.881Z,11.73
2019-02-21T13:12:50.351Z,11.69
2019-02-21T13:15:18.842Z,11.69
2019-02-21T13:17:47.333Z,11.67
2019-02-21T13:20:15.980Z,11.60
2019-02-21T13:22:44.630Z,11.64
2019-02-21T13:25:15.167Z,11.67
2019-02-21T13:27:43.648Z,11.61
2019-02-21T13:30:14.588Z,11.54
2019-02-21T13:32:43.063Z,11.54
2019-02-21T13:35:11.987Z,11.63
2019-02-21T13:37:40.461Z,11.61
2019-02-21T13:40:21.036Z,11.59
2019-02-21T13:42:48.464Z,11.63
2019-02-21T13:45:18.157Z,11.65
2019-02-21T13:47:46.735Z,11.61
2019-02-21T13:50:19.574Z,11.59
2019-02-21T13:52:48.101Z,11.60
2019-02-21T13:55:16.603Z,11.57
2019-02-21T13:57:45.085Z,11.58
2019-02-21T14:00:23.950Z,11.51
2019-02-21T14:02:52.439Z,11.53
2019-02-21T14:05:20.927Z,11.49
2019-02-21T14:07:49.440Z,11.55
2019-02-21T14:10:18.118Z,11.51
2019-02-21T14:12:46.591Z,11.49
2019-02-21T14:15:25.764Z,11.49
2019-02-21T14:17:54.213Z,11.48
2019-02-21T14:20:22.719Z,11.44
2019-02-21T14:22:51.180Z,11.47
2019-02-21T14:25:19.714Z,11.37
2019-02-21T14:27:48.187Z,11.43
2019-02-21T14:30:21.144Z,11.22
2019-02-21T14:32:49.583Z,11.26
2019-02-21T14:35:18.123Z,11.22
2019-02-21T14:37:46.610Z,11.29
2019-02-21T14:40:16.341Z,11.23
2019-02-21T14:42:44.810Z,11.22
2019-02-21T14:45:21.330Z,11.17
2019-02-21T14:47:49.820Z,11.16
2019-02-21T14:50:18.305Z,11.06
2019-02-21T14:52:46.806Z,11.00
2019-02-21T14:55:17.446Z,11.07
2019-02-21T14:57:45.982Z,11.12
2019-02-21T15:00:25.926Z,11.02
2019-02-21T15:02:54.473Z,11.03
2019-02-21T15:05:22.967Z,11.06
2019-02-21T15:07:51.451Z,11.06
2019-02-21T15:10:20.001Z,11.07
2019-02-21T15:12:48.487Z,11.07
2019-02-21T15:15:21.916Z,11.01
2019-02-21T15:17:49.703Z,11.02
2019-02-21T15:20:18.407Z,11.01
2019-02-21T15:22:46.919Z,10.98
2019-02-21T15:25:15.463Z,11.03
2019-02-21T15:27:44.193Z,10.98
2019-02-21T15:30:25.983Z,11.03
2019-02-21T15:32:54.486Z,10.94
2019-02-21T15:35:22.950Z,10.95
2019-02-21T15:37:51.455Z,10.99
2019-02-21T15:40:19.939Z,10.93
2019-02-21T15:42:48.453Z,10.99
2019-02-21T15:45:27.721Z,11.00
2019-02-21T15:47:56.226Z,10.92
2019-02-21T15:50:24.696Z,11.06
2019-02-21T15:52:55.704Z,10.99
2019-02-21T15:55:24.158Z,10.91
2019-02-21T15:58:03.246Z,10.86
2019-02-21T16:00:24.381Z,10.83
2019-02-21T16:02:52.863Z,10.81
2019-02-21T16:05:21.368Z,10.81
2019-02-21T16:07:49.856Z,10.85
2019-02-21T16:10:28.068Z,10.77
2019-02-21T16:12:57.130Z,10.82
2019-02-21T16:15:25.928Z,10.83
2019-02-21T16:17:54.439Z,10.83
2019-02-21T16:20:23.014Z,10.78
2019-02-21T16:22:51.505Z,10.77
2019-02-21T16:25:24.765Z,10.78
2019-02-21T16:27:55.313Z,10.81
2019-02-21T16:30:23.574Z,10.77
2019-02-21T16:32:52.068Z,10.79
2019-02-21T16:35:20.530Z,10.81
2019-02-21T16:37:49.033Z,10.74
2019-02-21T16:40:19.050Z,10.73
2019-02-21T16:42:47.555Z,10.74
2019-02-21T16:45:17.767Z,10.76
2019-02-21T16:47:46.320Z,10.79
2019-02-21T16:50:15.379Z,10.75
2019-02-21T16:52:44.198Z,10.75
2019-02-21T16:55:23.944Z,10.73
2019-02-21T16:57:52.416Z,10.73
2019-02-21T17:00:22.893Z,10.73
2019-02-21T17:02:51.424Z,10.72
2019-02-21T17:05:20.067Z,10.72
2019-02-21T17:07:48.556Z,10.68
2019-02-21T17:10:17.672Z,10.66
2019-02-21T17:12:46.176Z,10.71
2019-02-21T17:15:16.817Z,10.70
2019-02-21T17:17:45.343Z,10.69
2019-02-21T17:20:19.231Z,10.72
2019-02-21T17:22:47.733Z,10.72
2019-02-21T17:25:16.583Z,10.68
2019-02-21T17:27:46.123Z,10.72
2019-02-21T17:30:16.366Z,10.69
2019-02-21T17:32:44.967Z,10.69
2019-02-21T17:35:13.882Z,10.77
2019-02-21T17:37:42.365Z,10.72
2019-02-21T17:40:19.580Z,10.72
2019-02-21T17:42:48.070Z,10.70
2019-02-21T17:45:16.711Z,10.67
2019-02-21T17:47:45.201Z,10.71
2019-02-21T17:50:20.283Z,10.69
2019-02-21T17:52:50.350Z,10.69
2019-02-21T17:55:19.248Z,10.66
2019-02-21T17:57:47.872Z,10.67
2019-02-21T18:00:20.793Z,10.68
2019-02-21T18:02:49.301Z,10.67
2019-02-21T18:05:17.778Z,10.66
2019-02-21T18:07:46.272Z,10.56
2019-02-21T18:10:16.394Z,10.53
2019-02-21T18:12:44.917Z,10.47
2019-02-21T18:15:15.582Z,10.54
2019-02-21T18:17:44.052Z,10.45
2019-02-21T18:20:16.455Z,10.31
2019-02-21T18:22:45.474Z,10.31
2019-02-21T18:25:29.469Z,10.30
2019-02-21T18:27:57.969Z,10.29
2019-02-21T18:30:26.451Z,10.28
2019-02-21T18:32:54.920Z,10.24
2019-02-21T18:35:23.470Z,10.23
2019-02-21T18:37:52.015Z,10.14
2019-02-21T18:40:22.559Z,10.08
2019-02-21T18:42:51.044Z,10.00
2019-02-21T18:45:19.543Z,10.07
2019-02-21T18:47:48.019Z,10.07
2019-02-21T18:50:16.522Z,10.04
2019-02-21T18:52:44.990Z,9.97
2019-02-21T18:55:13.577Z,10.05
2019-02-21T18:57:42.064Z,10.09
2019-02-21T19:00:24.702Z,10.08
2019-02-21T19:02:53.161Z,10.04
2019-02-21T19:05:22.125Z,10.07
2019-02-21T19:08:00.446Z,9.88
2019-02-21T19:10:21.770Z,9.89
2019-02-21T19:12:50.264Z,9.96
2019-02-21T19:15:20.091Z,9.93
2019-02-21T19:17:48.580Z,9.98
2019-02-21T19:20:21.358Z,10.02
2019-02-21T19:22:50.178Z,9.87
2019-02-21T19:25:18.897Z,9.92
2019-02-21T19:27:47.379Z,9.91
2019-02-21T19:30:36.887Z,9.83
2019-02-21T19:33:05.478Z,9.89
2019-02-21T19:35:33.986Z,9.94
2019-02-21T19:38:10.341Z,9.88
2019-02-21T19:40:32.798Z,9.89
2019-02-21T19:43:01.366Z,9.83
2019-02-21T19:45:29.928Z,9.86
2019-02-21T19:47:58.438Z,9.88
2019-02-21T19:50:26.995Z,9.89
2019-02-21T19:52:55.476Z,9.90
2019-02-21T19:55:24.037Z,9.86
2019-02-21T19:57:52.490Z,9.85
2019-02-21T20:00:30.615Z,9.86
2019-02-21T20:02:59.097Z,9.79
2019-02-21T20:05:27.852Z,9.81
2019-02-21T20:07:56.406Z,9.87
2019-02-21T20:10:26.389Z,9.77
2019-02-21T20:12:56.505Z,9.77
2019-02-21T20:15:25.005Z,9.66
2019-02-21T20:17:53.483Z,9.75
2019-02-21T20:20:24.707Z,9.74
2019-02-21T20:22:53.267Z,9.71
2019-02-21T20:25:21.812Z,9.68
2019-02-21T20:27:50.352Z,9.65
2019-02-21T20:30:20.450Z,9.72
2019-02-21T20:32:48.926Z,9.66
2019-02-21T20:35:17.447Z,9.69
2019-02-21T20:37:45.916Z,9.69
2019-02-21T20:40:14.550Z,9.70
2019-02-21T20:42:43.150Z,9.66
2019-02-21T20:45:16.077Z,9.62
2019-02-21T20:47:44.528Z,9.66
2019-02-21T20:50:13.299Z,9.67
2019-02-21T20:52:41.861Z,9.66
2019-02-21T20:55:11.457Z,9.64
2019-02-21T20:57:39.935Z,9.56
2019-02-21T21:00:11.375Z,9.59
2019-02-21T21:02:39.842Z,9.62
2019-02-21T21:05:08.579Z,9.67
2019-02-21T21:07:37.038Z,9.59
2019-02-21T21:10:09.331Z,9.56
2019-02-21T21:12:37.817Z,9.52
2019-02-21T21:15:09.585Z,9.61
2019-02-21T21:17:38.313Z,9.64
2019-02-21T21:20:16.569Z,9.58
2019-02-21T21:22:39.733Z,9.52
2019-02-21T21:25:10.944Z,9.48
2019-02-21T21:27:39.418Z,9.50
2019-02-21T21:30:10.664Z,9.52
2019-02-21T21:32:39.146Z,9.50
2019-02-21T21:35:07.895Z,9.47
2019-02-21T21:37:36.374Z,9.55
2019-02-21T21:40:16.221Z,9.52
2019-02-21T21:42:44.765Z,9.55
2019-02-21T21:45:17.777Z,9.47
2019-02-21T21:47:46.260Z,9.45
2019-02-21T21:50:16.885Z,9.51
2019-02-21T21:52:45.399Z,9.51
2019-02-21T21:55:14.327Z,9.49
2019-02-21T21:57:42.852Z,9.46
2019-02-21T22:00:22.538Z,9.51
2019-02-21T22:02:51.277Z,9.46
2019-02-21T22:05:20.208Z,9.49
2019-02-21T22:07:49.521Z,9.48
2019-02-21T22:10:19.854Z,9.44
2019-02-21T22:12:48.334Z,9.50
2019-02-21T22:15:20.923Z,9.52
2019-02-21T22:17:49.397Z,9.49
2019-02-21T22:20:17.881Z,9.52
2019-02-21T22:22:46.359Z,9.44
2019-02-21T22:25:15.119Z,9.48
2019-02-21T22:27:43.598Z,9.52
2019-02-21T22:30:15.143Z,9.50
2019-02-21T22:32:43.660Z,9.69
2019-02-21T22:35:12.239Z,9.76
2019-02-21T22:37:40.720Z,9.72
2019-02-21T22:40:11.628Z,9.55
2019-02-21T22:42:40.122Z,9.55
2019-02-21T22:45:09.943Z,9.53
2019-02-21T22:47:38.446Z,9.50
2019-02-21T22:50:10.267Z,9.42
2019-02-21T22:52:38.760Z,9.44
2019-02-21T22:55:10.187Z,9.44
2019-02-21T22:57:38.476Z,9.45
2019-02-21T23:00:32.952Z,9.46
2019-02-21T23:03:02.081Z,9.44
2019-02-21T23:05:51.411Z,9.41
2019-02-21T23:08:28.315Z,9.42
2019-02-21T23:10:56.804Z,9.42
2019-02-21T23:13:25.308Z,9.43
2019-02-21T23:15:53.792Z,9.44
2019-02-21T23:18:22.322Z,9.40
2019-02-21T23:20:50.783Z,9.43
2019-02-21T23:23:19.284Z,9.45
2019-02-21T23:25:47.768Z,9.44
2019-02-21T23:28:16.282Z,9.39
2019-02-21T23:30:44.814Z,9.36
2019-02-21T23:33:13.337Z,9.42
2019-02-21T23:35:41.805Z,9.42
2019-02-21T23:38:10.307Z,9.42
2019-02-21T23:40:38.788Z,9.43
2019-02-21T23:43:07.305Z,9.41
2019-02-21T23:45:35.775Z,9.41
2019-02-21T23:48:04.361Z,9.42
2019-02-21T23:50:32.833Z,9.39
2019-02-21T23:53:01.337Z,9.38
2019-02-21T23:55:29.808Z,9.33
2019-02-21T23:57:58.296Z,9.33
